Buoy 41936

sailwx.info

Track history (hours):
 
Tides and Currents Weather Stations Pressure Air Temp Water Temp Dewpoint Dewpoint Depression Visibility Wind Speed Wind Dir Waves Ship Positions

Drifting buoy 41936

Last reported at 2014-Dec-20 06:00 UTC. Time now 2014-Dec-20 07:17 UTC.
Position N 31°53' W 065°16'.

Barometer 1017.4 mb
Water temperature 22.7 ° C

Date/timePositionNaut miles runAvg speedWind from/ knotsBaromVisibWave heightAir tempDewpointWater temp
2014-Dec-20 06:00N 31°53' W 065°16'1 0.3 1017.4 22.7
2014-Dec-20 02:00N 31°53' W 065°17'0 0.0 1017.3 22.7
2014-Dec-20 01:00N 31°53' W 065°17'0 0.3 1017.2 22.7
2014-Dec-20 00:00N 31°52' W 065°17'1 0.3 1016.8 22.8
2014-Dec-19 22:00N 31°52' W 065°17'1 1.4 1015.4 22.8
2014-Dec-19 21:00N 31°53' W 065°18'0 0.0 1014.8 22.8
2014-Dec-19 20:00N 31°53' W 065°18'0 0.2 1015.1 22.8
2014-Dec-19 18:00N 31°52' W 065°19'0 0.0 1014.4 22.8
2014-Dec-19 17:00N 31°52' W 065°19'0 0.2 1015.2 22.8
2014-Dec-19 15:00N 31°53' W 065°19'1 0.6 1016.2 22.8
2014-Dec-19 14:00N 31°52' W 065°19'1 0.2 1016.5 22.8
2014-Dec-19 11:00N 31°52' W 065°19'0 0.4 1015.4 22.8
2014-Dec-19 10:00N 31°52' W 065°19'1 0.5 1015.0 22.8
2014-Dec-19 09:00N 31°52' W 065°19'1 0.6 1014.9 22.8
2014-Dec-19 08:00N 31°51' W 065°19'0 0.0 1014.6 22.8
2014-Dec-19 07:00N 31°51' W 065°19'0 0.0 1015.2 22.8
2014-Dec-19 06:00N 31°51' W 065°19'2 0.5 1015.5 22.8
2014-Dec-19 02:00N 31°51' W 065°22'2 0.8 1016.0 22.8
2014-Dec-19 00:00N 31°51' W 065°23'1 0.3 1016.0 22.8
2014-Dec-18 22:00N 31°51' W 065°23'0 0.4 1015.9 22.9
2014-Dec-18 21:00N 31°51' W 065°22'1 0.3 1015.9 22.9
2014-Dec-18 17:00N 31°50' W 065°22'0 0.0 1016.3 22.9
2014-Dec-18 16:00N 31°50' W 065°22'1 0.8 1016.8 22.9
2014-Dec-18 15:00N 31°50' W 065°23'1 0.6 1017.2 22.9
2014-Dec-18 13:00N 31°50' W 065°24'0 0.0 1017.1 22.9
2014-Dec-18 11:00N 31°50' W 065°24'0 0.4 1016.2 22.9
2014-Dec-18 10:00N 31°50' W 065°25'1 0.6 1015.8 22.9
2014-Dec-18 09:00N 31°50' W 065°25'1 0.7 1015.5 22.9
2014-Dec-18 08:00N 31°50' W 065°26'0 0.0 1015.5 22.9
2014-Dec-18 06:00N 31°50' W 065°26'0 0.0 1015.9 22.9
2014-Dec-18 05:00N 31°50' W 065°26'2 0.8 1015.6 22.9
2014-Dec-18 03:00N 31°49' W 065°28'0 0.0 1015.9 22.9
2014-Dec-18 02:00N 31°49' W 065°28'2 1.6 1016.0 22.9
2014-Dec-18 01:00N 31°49' W 065°29'0 0.0 1016.0 22.9
2014-Dec-18 00:00N 31°49' W 065°29'0 0.0 1016.0 22.9
2014-Dec-17 23:00N 31°49' W 065°29'0 0.2 1015.9 22.9
2014-Dec-17 22:00N 31°49' W 065°29'1 0.7 1015.2 22.9
2014-Dec-17 21:00N 31°49' W 065°30'2 0.8 1015.0 22.9
2014-Dec-17 18:00N 31°51' W 065°31'1 0.4 1016.2 22.9
2014-Dec-17 15:00N 31°50' W 065°30'0 0.0 1018.7 23.0
2014-Dec-17 14:00N 31°50' W 065°30'1 0.4 1019.0 23.0
2014-Dec-17 11:00N 31°50' W 065°31'1 0.7 1018.2 23.0
2014-Dec-17 10:00N 31°50' W 065°32'0 0.4 1018.1 23.0
2014-Dec-17 09:00N 31°51' W 065°32'2 2.0 1017.8 23.0
2014-Dec-17 08:00N 31°51' W 065°34'0 0.0 1018.2 23.0
2014-Dec-17 06:00N 31°51' W 065°34'1 0.2 1019.6 23.0
2014-Dec-17 03:00N 31°52' W 065°34'0 0.0 1021.1 23.0
2014-Dec-17 02:00N 31°52' W 065°34'1 0.7 1021.0 23.0
2014-Dec-17 01:00N 31°52' W 065°34'0 0.0 1021.0 23.0
2014-Dec-17 00:00N 31°52' W 065°34'1 1.2 1020.9 23.0
2014-Dec-16 23:00N 31°52' W 065°32'1 0.3 1021.3 23.0
2014-Dec-16 21:00N 31°52' W 065°32'1 1.2 1020.5 23.0
2014-Dec-16 20:00N 31°51' W 065°32'1 0.5 1020.0 23.0
2014-Dec-16 18:00N 31°52' W 065°32'4 0.2 1019.6 23.1
2014-Dec-15 22:00N 31°56' W 065°31'1 0.6 1015.3 23.1
2014-Dec-15 21:00N 31°55' W 065°31'1 1.2 1014.6 23.1
2014-Dec-15 20:00N 31°56' W 065°29'0 0.0 1014.0 23.1
2014-Dec-15 18:00N 31°56' W 065°29'0 0.0 1013.0 23.1
2014-Dec-15 17:00N 31°56' W 065°29'1 0.8 1013.0 23.1
2014-Dec-15 16:00N 31°56' W 065°30'1 0.5 1013.1 23.1
2014-Dec-15 15:00N 31°56' W 065°29'1 0.5 1013.5 23.1
2014-Dec-15 14:00N 31°56' W 065°29'0 0.0 1013.3 23.1
2014-Dec-15 13:00N 31°56' W 065°29'1 0.8 1012.6 23.1
2014-Dec-15 12:00N 31°57' W 065°28'1 0.3 1011.6 23.1
2014-Dec-15 10:00N 31°57' W 065°28'0 0.0 1010.3 23.1
2014-Dec-15 09:00N 31°57' W 065°28'1 0.8 1009.8 23.1
2014-Dec-15 08:00N 31°56' W 065°27'0 0.0 1009.5 23.2
2014-Dec-15 07:00N 31°56' W 065°27'0 0.0 1009.6 23.2
2014-Dec-15 06:00N 31°56' W 065°27'2 0.6 1009.6 23.2
2014-Dec-15 02:00N 31°58' W 065°25'0 0.0 1009.9 23.2
2014-Dec-15 01:00N 31°58' W 065°25'0 0.0 1010.0 23.2
2014-Dec-15 00:00N 31°58' W 065°25'0 0.0 1009.9 23.2
2014-Dec-14 23:00N 31°58' W 065°25'2 0.8 1009.8 23.2
2014-Dec-14 21:00N 31°58' W 065°23'1 0.7 1009.3 23.2
2014-Dec-14 19:00N 31°57' W 065°22'0 0.0 1008.8 23.3
2014-Dec-14 18:00N 31°57' W 065°22'0 0.0 1008.9 23.3
2014-Dec-14 17:00N 31°57' W 065°22'1 0.6 1009.2 23.3
2014-Dec-14 15:00N 31°56' W 065°21'2 1.5 1010.7 23.3
2014-Dec-14 14:00N 31°56' W 065°19'0 0.0 1010.6 23.3
2014-Dec-14 13:00N 31°56' W 065°19'0 0.0 1010.3 23.3
2014-Dec-14 11:00N 31°56' W 065°19'1 0.5 1009.5 23.3
2014-Dec-14 10:00N 31°56' W 065°20'2 1.9 1009.0 23.3
2014-Dec-14 09:00N 31°55' W 065°18'0 0.0 1008.9 23.3
2014-Dec-14 08:00N 31°55' W 065°18'1 0.3 1008.8 23.3
2014-Dec-14 06:00N 31°56' W 065°18'1 0.4 1009.3 23.3
2014-Dec-14 02:00N 31°55' W 065°17'1 0.3 1010.6 23.4
2014-Dec-13 23:00N 31°55' W 065°16'6 0.3 1010.8 23.4
2014-Dec-12 23:00N 31°52' W 065°09'1 0.5 1015.4 23.5
2014-Dec-12 21:00N 31°51' W 065°10'0 0.0 1015.5 23.5
2014-Dec-12 20:00N 31°51' W 065°10'0 0.2 1015.4 23.5
2014-Dec-12 19:00N 31°51' W 065°11'1 1.0 1015.5 23.5
2014-Dec-12 18:00N 31°52' W 065°11'5 0.3 1016.1 23.5
2014-Dec-12 02:00N 31°49' W 065°06'1 0.6 1019.9 23.6
2014-Dec-12 01:00N 31°49' W 065°06'0 0.0 1019.8 23.6
2014-Dec-11 23:00N 31°49' W 065°06'1 0.5 1019.5 23.6
2014-Dec-11 21:00N 31°48' W 065°05'0 0.1 1018.6 23.6
2014-Dec-11 19:00N 31°48' W 065°04'0 0.0 1017.8 23.7
2014-Dec-11 16:00N 31°48' W 065°04'0 0.0 1018.6 23.6
2014-Dec-11 15:00N 31°48' W 065°04'0 0.5 1019.1 23.6
2014-Dec-11 14:00N 31°48' W 065°05'1 0.7 1018.9 23.6
2014-Dec-11 12:00N 31°47' W 065°05'1 0.5 1017.0 23.6
2014-Dec-11 11:00N 31°46' W 065°05'0 0.5 1016.3 23.6
2014-Dec-11 10:00N 31°46' W 065°05'1 0.6 1015.5 23.6
2014-Dec-11 09:00N 31°45' W 065°05'0 0.0 1014.8 23.6
2014-Dec-11 08:00N 31°45' W 065°05'2 2.3 1014.2 23.6
2014-Dec-11 07:00N 31°43' W 065°04'0 0.0 1013.9 23.6
2014-Dec-11 06:00N 31°43' W 065°04'1 0.2 1013.6 23.6
2014-Dec-11 02:00N 31°43' W 065°04'0 0.0 1011.7 23.7
2014-Dec-11 01:00N 31°43' W 065°04'1 0.6 1011.5 23.7
2014-Dec-10 23:00N 31°43' W 065°03'0 0.3 1010.1 23.7
2014-Dec-10 22:00N 31°43' W 065°03'0 0.2 1009.4 23.7
2014-Dec-10 21:00N 31°43' W 065°03'1 0.8 1009.0 23.7
2014-Dec-10 20:00N 31°43' W 065°04'1 0.3 1008.1 23.7
2014-Dec-10 17:00N 31°43' W 065°05'2 1.1 1006.6 23.7
2014-Dec-10 15:00N 31°42' W 065°07'2 2.3 1007.7 23.7
2014-Dec-10 14:00N 31°40' W 065°09'1 0.2 1008.0 23.8
2014-Dec-10 11:00N 31°41' W 065°09'1 0.5 1007.6 23.7
2014-Dec-10 10:00N 31°40' W 065°10'0 0.1 1008.1 23.7
2014-Dec-10 09:00N 31°40' W 065°09'1 1.3 1008.3 23.7
2014-Dec-10 08:00N 31°39' W 065°11'0 0.0 1008.9 23.7
2014-Dec-10 06:00N 31°39' W 065°11'   1010.1 23.7
Track history (hours):
 
Tides and Currents Weather Stations Pressure Air Temp Water Temp Dewpoint Dewpoint Depression Visibility Wind Speed Wind Dir Waves Ship Positions

Drifting buoy 41936

Last reported at 2014-Dec-20 06:00 UTC. Time now 2014-Dec-20 07:17 UTC.
Position N 31°53' W 065°16'.

Barometer 1017.4 mb
Water temperature 22.7 ° C

Date/timePositionNaut miles runAvg speedWind from/ knotsBaromVisibWave heightAir tempDewpointWater temp
2014-Dec-20 06:00N 31°53' W 065°16'1 0.3 1017.4 22.7
2014-Dec-20 02:00N 31°53' W 065°17'0 0.0 1017.3 22.7
2014-Dec-20 01:00N 31°53' W 065°17'0 0.3 1017.2 22.7
2014-Dec-20 00:00N 31°52' W 065°17'1 0.3 1016.8 22.8
2014-Dec-19 22:00N 31°52' W 065°17'1 1.4 1015.4 22.8
2014-Dec-19 21:00N 31°53' W 065°18'0 0.0 1014.8 22.8
2014-Dec-19 20:00N 31°53' W 065°18'0 0.2 1015.1 22.8
2014-Dec-19 18:00N 31°52' W 065°19'0 0.0 1014.4 22.8
2014-Dec-19 17:00N 31°52' W 065°19'0 0.2 1015.2 22.8
2014-Dec-19 15:00N 31°53' W 065°19'1 0.6 1016.2 22.8
2014-Dec-19 14:00N 31°52' W 065°19'1 0.2 1016.5 22.8
2014-Dec-19 11:00N 31°52' W 065°19'0 0.4 1015.4 22.8
2014-Dec-19 10:00N 31°52' W 065°19'1 0.5 1015.0 22.8
2014-Dec-19 09:00N 31°52' W 065°19'1 0.6 1014.9 22.8
2014-Dec-19 08:00N 31°51' W 065°19'0 0.0 1014.6 22.8
2014-Dec-19 07:00N 31°51' W 065°19'0 0.0 1015.2 22.8
2014-Dec-19 06:00N 31°51' W 065°19'2 0.5 1015.5 22.8
2014-Dec-19 02:00N 31°51' W 065°22'2 0.8 1016.0 22.8
2014-Dec-19 00:00N 31°51' W 065°23'1 0.3 1016.0 22.8
2014-Dec-18 22:00N 31°51' W 065°23'0 0.4 1015.9 22.9
2014-Dec-18 21:00N 31°51' W 065°22'1 0.3 1015.9 22.9
2014-Dec-18 17:00N 31°50' W 065°22'0 0.0 1016.3 22.9
2014-Dec-18 16:00N 31°50' W 065°22'1 0.8 1016.8 22.9
2014-Dec-18 15:00N 31°50' W 065°23'1 0.6 1017.2 22.9
2014-Dec-18 13:00N 31°50' W 065°24'0 0.0 1017.1 22.9
2014-Dec-18 11:00N 31°50' W 065°24'0 0.4 1016.2 22.9
2014-Dec-18 10:00N 31°50' W 065°25'1 0.6 1015.8 22.9
2014-Dec-18 09:00N 31°50' W 065°25'1 0.7 1015.5 22.9
2014-Dec-18 08:00N 31°50' W 065°26'0 0.0 1015.5 22.9
2014-Dec-18 06:00N 31°50' W 065°26'0 0.0 1015.9 22.9
2014-Dec-18 05:00N 31°50' W 065°26'2 0.8 1015.6 22.9
2014-Dec-18 03:00N 31°49' W 065°28'0 0.0 1015.9 22.9
2014-Dec-18 02:00N 31°49' W 065°28'2 1.6 1016.0 22.9
2014-Dec-18 01:00N 31°49' W 065°29'0 0.0 1016.0 22.9
2014-Dec-18 00:00N 31°49' W 065°29'0 0.0 1016.0 22.9
2014-Dec-17 23:00N 31°49' W 065°29'0 0.2 1015.9 22.9
2014-Dec-17 22:00N 31°49' W 065°29'1 0.7 1015.2 22.9
2014-Dec-17 21:00N 31°49' W 065°30'2 0.8 1015.0 22.9
2014-Dec-17 18:00N 31°51' W 065°31'1 0.4 1016.2 22.9
2014-Dec-17 15:00N 31°50' W 065°30'0 0.0 1018.7 23.0
2014-Dec-17 14:00N 31°50' W 065°30'1 0.4 1019.0 23.0
2014-Dec-17 11:00N 31°50' W 065°31'1 0.7 1018.2 23.0
2014-Dec-17 10:00N 31°50' W 065°32'0 0.4 1018.1 23.0
2014-Dec-17 09:00N 31°51' W 065°32'2 2.0 1017.8 23.0
2014-Dec-17 08:00N 31°51' W 065°34'0 0.0 1018.2 23.0
2014-Dec-17 06:00N 31°51' W 065°34'1 0.2 1019.6 23.0
2014-Dec-17 03:00N 31°52' W 065°34'0 0.0 1021.1 23.0
2014-Dec-17 02:00N 31°52' W 065°34'1 0.7 1021.0 23.0
2014-Dec-17 01:00N 31°52' W 065°34'0 0.0 1021.0 23.0
2014-Dec-17 00:00N 31°52' W 065°34'1 1.2 1020.9 23.0
2014-Dec-16 23:00N 31°52' W 065°32'1 0.3 1021.3 23.0
2014-Dec-16 21:00N 31°52' W 065°32'1 1.2 1020.5 23.0
2014-Dec-16 20:00N 31°51' W 065°32'1 0.5 1020.0 23.0
2014-Dec-16 18:00N 31°52' W 065°32'4 0.2 1019.6 23.1
2014-Dec-15 22:00N 31°56' W 065°31'1 0.6 1015.3 23.1
2014-Dec-15 21:00N 31°55' W 065°31'1 1.2 1014.6 23.1
2014-Dec-15 20:00N 31°56' W 065°29'0 0.0 1014.0 23.1
2014-Dec-15 18:00N 31°56' W 065°29'0 0.0 1013.0 23.1
2014-Dec-15 17:00N 31°56' W 065°29'1 0.8 1013.0 23.1
2014-Dec-15 16:00N 31°56' W 065°30'1 0.5 1013.1 23.1
2014-Dec-15 15:00N 31°56' W 065°29'1 0.5 1013.5 23.1
2014-Dec-15 14:00N 31°56' W 065°29'0 0.0 1013.3 23.1
2014-Dec-15 13:00N 31°56' W 065°29'1 0.8 1012.6 23.1
2014-Dec-15 12:00N 31°57' W 065°28'1 0.3 1011.6 23.1
2014-Dec-15 10:00N 31°57' W 065°28'0 0.0 1010.3 23.1
2014-Dec-15 09:00N 31°57' W 065°28'1 0.8 1009.8 23.1
2014-Dec-15 08:00N 31°56' W 065°27'0 0.0 1009.5 23.2
2014-Dec-15 07:00N 31°56' W 065°27'0 0.0 1009.6 23.2
2014-Dec-15 06:00N 31°56' W 065°27'2 0.6 1009.6 23.2
2014-Dec-15 02:00N 31°58' W 065°25'0 0.0 1009.9 23.2
2014-Dec-15 01:00N 31°58' W 065°25'0 0.0 1010.0 23.2
2014-Dec-15 00:00N 31°58' W 065°25'0 0.0 1009.9 23.2
2014-Dec-14 23:00N 31°58' W 065°25'2 0.8 1009.8 23.2
2014-Dec-14 21:00N 31°58' W 065°23'1 0.7 1009.3 23.2
2014-Dec-14 19:00N 31°57' W 065°22'0 0.0 1008.8 23.3
2014-Dec-14 18:00N 31°57' W 065°22'0 0.0 1008.9 23.3
2014-Dec-14 17:00N 31°57' W 065°22'1 0.6 1009.2 23.3
2014-Dec-14 15:00N 31°56' W 065°21'2 1.5 1010.7 23.3
2014-Dec-14 14:00N 31°56' W 065°19'0 0.0 1010.6 23.3
2014-Dec-14 13:00N 31°56' W 065°19'0 0.0 1010.3 23.3
2014-Dec-14 11:00N 31°56' W 065°19'1 0.5 1009.5 23.3
2014-Dec-14 10:00N 31°56' W 065°20'2 1.9 1009.0 23.3
2014-Dec-14 09:00N 31°55' W 065°18'0 0.0 1008.9 23.3
2014-Dec-14 08:00N 31°55' W 065°18'1 0.3 1008.8 23.3
2014-Dec-14 06:00N 31°56' W 065°18'1 0.4 1009.3 23.3
2014-Dec-14 02:00N 31°55' W 065°17'1 0.3 1010.6 23.4
2014-Dec-13 23:00N 31°55' W 065°16'6 0.3 1010.8 23.4
2014-Dec-12 23:00N 31°52' W 065°09'1 0.5 1015.4 23.5
2014-Dec-12 21:00N 31°51' W 065°10'0 0.0 1015.5 23.5
2014-Dec-12 20:00N 31°51' W 065°10'0 0.2 1015.4 23.5
2014-Dec-12 19:00N 31°51' W 065°11'1 1.0 1015.5 23.5
2014-Dec-12 18:00N 31°52' W 065°11'5 0.3 1016.1 23.5
2014-Dec-12 02:00N 31°49' W 065°06'1 0.6 1019.9 23.6
2014-Dec-12 01:00N 31°49' W 065°06'0 0.0 1019.8 23.6
2014-Dec-11 23:00N 31°49' W 065°06'1 0.5 1019.5 23.6
2014-Dec-11 21:00N 31°48' W 065°05'0 0.1 1018.6 23.6
2014-Dec-11 19:00N 31°48' W 065°04'0 0.0 1017.8 23.7
2014-Dec-11 16:00N 31°48' W 065°04'0 0.0 1018.6 23.6
2014-Dec-11 15:00N 31°48' W 065°04'0 0.5 1019.1 23.6
2014-Dec-11 14:00N 31°48' W 065°05'1 0.7 1018.9 23.6
2014-Dec-11 12:00N 31°47' W 065°05'1 0.5 1017.0 23.6
2014-Dec-11 11:00N 31°46' W 065°05'0 0.5 1016.3 23.6
2014-Dec-11 10:00N 31°46' W 065°05'1 0.6 1015.5 23.6
2014-Dec-11 09:00N 31°45' W 065°05'0 0.0 1014.8 23.6
2014-Dec-11 08:00N 31°45' W 065°05'2 2.3 1014.2 23.6
2014-Dec-11 07:00N 31°43' W 065°04'0 0.0 1013.9 23.6
2014-Dec-11 06:00N 31°43' W 065°04'1 0.2 1013.6 23.6
2014-Dec-11 02:00N 31°43' W 065°04'0 0.0 1011.7 23.7
2014-Dec-11 01:00N 31°43' W 065°04'1 0.6 1011.5 23.7
2014-Dec-10 23:00N 31°43' W 065°03'0 0.3 1010.1 23.7
2014-Dec-10 22:00N 31°43' W 065°03'0 0.2 1009.4 23.7
2014-Dec-10 21:00N 31°43' W 065°03'1 0.8 1009.0 23.7
2014-Dec-10 20:00N 31°43' W 065°04'1 0.3 1008.1 23.7
2014-Dec-10 17:00N 31°43' W 065°05'2 1.1 1006.6 23.7
2014-Dec-10 15:00N 31°42' W 065°07'2 2.3 1007.7 23.7
2014-Dec-10 14:00N 31°40' W 065°09'1 0.2 1008.0 23.8
2014-Dec-10 11:00N 31°41' W 065°09'1 0.5 1007.6 23.7
2014-Dec-10 10:00N 31°40' W 065°10'0 0.1 1008.1 23.7
2014-Dec-10 09:00N 31°40' W 065°09'1 1.3 1008.3 23.7
2014-Dec-10 08:00N 31°39' W 065°11'0 0.0 1008.9 23.7
2014-Dec-10 06:00N 31°39' W 065°11'   1010.1 23.7

Dump ship's entire track history